Time;durP1;ratioP1;P1;durP2;ratioP2;P2;SDS_P1;SDS_P2;PMS_P1;PMS_P2;Temp;Humidity;BMP_temperature;BMP_pressure;BME280_temperature;BME280_humidity;BME280_pressure;Samples;Min_cycle;Max_cycle;Signal;HPM_P1;HPM_P2
2023/04/26 00:02:18;;;;;;;4.33;0.60;;;;;;;5.55;77.98;100837.06;5073111;28;20515;-66
2023/04/26 00:04:46;;;;;;;7.67;0.80;;;;;;;5.48;78.87;100831.09;5076496;28;20461;-66
2023/04/26 00:07:14;;;;;;;6.20;1.20;;;;;;;5.49;78.66;100835.38;5077095;28;20445;-66
2023/04/26 00:09:43;;;;;;;5.57;0.70;;;;;;;5.46;78.65;100833.25;5076734;28;20494;-66
2023/04/26 00:12:10;;;;;;;13.43;1.40;;;;;;;5.47;78.61;100842.91;5076907;28;20481;-67
2023/04/26 00:14:39;;;;;;;4.93;0.90;;;;;;;5.51;78.23;100835.97;5076981;28;20998;-67
2023/04/26 00:17:05;;;;;;;14.13;2.00;;;;;;;5.40;78.88;100836.97;5076835;28;20437;-67
2023/04/26 00:19:32;;;;;;;7.27;1.33;;;;;;;5.34;79.86;100844.19;5076912;28;20437;-67
2023/04/26 00:21:59;;;;;;;7.00;1.30;;;;;;;5.40;79.87;100839.63;5076656;28;20532;-67
2023/04/26 00:24:25;;;;;;;9.40;1.07;;;;;;;5.41;79.76;100835.91;5076801;28;20492;-67
2023/04/26 00:26:54;;;;;;;5.47;1.40;;;;;;;5.34;80.14;100844.19;5076370;28;20787;-67
2023/04/26 00:29:21;;;;;;;5.60;1.23;;;;;;;5.35;80.08;100842.31;5076946;28;20448;-67
2023/04/26 00:31:48;;;;;;;5.53;1.30;;;;;;;5.29;79.95;100847.66;5076580;28;20442;-67
2023/04/26 00:34:15;;;;;;;6.77;1.57;;;;;;;5.17;80.91;100835.47;5076254;28;20491;-67
2023/04/26 00:36:42;;;;;;;8.10;1.53;;;;;;;5.12;81.87;100847.00;5076431;28;20865;-67
2023/04/26 00:39:09;;;;;;;11.50;1.90;;;;;;;5.14;81.68;100839.50;5076404;28;20543;-67
2023/04/26 00:41:35;;;;;;;13.17;1.50;;;;;;;5.11;81.91;100845.38;5076306;28;20444;-68
2023/04/26 00:44:02;;;;;;;4.90;1.00;;;;;;;5.14;82.22;100834.13;5076221;28;20460;-67
2023/04/26 00:46:29;;;;;;;10.13;1.47;;;;;;;5.13;82.00;100839.75;5075940;28;20500;-66
2023/04/26 00:48:58;;;;;;;5.07;0.80;;;;;;;5.09;82.61;100847.53;5075894;28;20494;-66
2023/04/26 00:51:25;;;;;;;4.73;1.13;;;;;;;5.13;81.71;100843.22;5076192;28;20451;-66
2023/04/26 00:53:52;;;;;;;5.50;1.20;;;;;;;5.09;81.93;100852.91;5075974;28;20489;-67
2023/04/26 00:56:19;;;;;;;11.13;1.23;;;;;;;5.12;82.13;100844.31;5076131;28;20445;-67
2023/04/26 00:58:46;;;;;;;4.50;1.00;;;;;;;5.09;82.49;100841.31;5076034;28;20441;-67
2023/04/26 01:01:13;;;;;;;14.50;1.60;;;;;;;5.06;82.82;100848.03;5076050;28;20433;-67
2023/04/26 01:03:40;;;;;;;6.63;1.00;;;;;;;5.07;82.62;100845.09;5075826;28;20437;-67
2023/04/26 01:06:08;;;;;;;5.90;0.93;;;;;;;5.04;83.18;100842.91;5075607;28;20445;-66
2023/04/26 01:08:35;;;;;;;6.27;1.20;;;;;;;5.06;82.78;100854.22;5075870;28;20525;-66
2023/04/26 01:11:01;;;;;;;4.40;0.90;;;;;;;5.06;82.70;100850.72;5075835;28;20446;-66
2023/04/26 01:13:29;;;;;;;9.30;1.17;;;;;;;5.00;83.34;100854.41;5075639;28;20481;-66
2023/04/26 01:15:57;;;;;;;4.93;0.87;;;;;;;4.98;83.39;100854.69;5074529;28;20445;-66
2023/04/26 01:18:24;;;;;;;6.37;1.37;;;;;;;4.94;83.50;100856.25;5075720;28;20472;-67
2023/04/26 01:20:51;;;;;;;5.43;1.20;;;;;;;4.93;83.26;100851.16;5075415;28;20485;-67
2023/04/26 01:23:19;;;;;;;4.50;0.90;;;;;;;4.95;83.90;100846.31;5075558;28;20494;-67
2023/04/26 01:25:46;;;;;;;8.53;1.73;;;;;;;4.98;83.91;100856.56;5075067;28;20497;-67
2023/04/26 01:28:13;;;;;;;7.30;0.97;;;;;;;4.94;84.10;100863.50;5075571;28;20476;-66
2023/04/26 01:30:39;;;;;;;5.23;0.90;;;;;;;4.90;83.76;100862.41;5075120;28;20452;-66
2023/04/26 01:33:06;;;;;;;7.33;1.13;;;;;;;4.85;84.73;100859.69;5075339;28;20576;-67
2023/04/26 01:35:33;;;;;;;10.00;1.20;;;;;;;4.70;85.31;100863.84;5075166;28;20478;-67
2023/04/26 01:37:59;;;;;;;8.00;0.87;;;;;;;4.74;85.03;100862.28;5075062;28;20438;-67
2023/04/26 01:40:27;;;;;;;6.83;1.20;;;;;;;4.71;85.44;100867.34;5075312;28;20476;-67
2023/04/26 01:42:54;;;;;;;8.27;1.50;;;;;;;4.74;85.49;100866.84;5075229;28;20488;-67
2023/04/26 01:45:20;;;;;;;7.23;0.90;;;;;;;4.75;85.42;100869.25;5074833;28;20470;-67
2023/04/26 01:47:47;;;;;;;4.80;0.97;;;;;;;4.72;85.85;100869.75;5075271;28;20832;-67
2023/04/26 01:50:14;;;;;;;10.10;1.10;;;;;;;4.72;85.37;100874.31;5075132;28;20437;-67
2023/04/26 01:52:40;;;;;;;5.03;0.90;;;;;;;4.67;85.39;100869.72;5074775;28;20485;-67
2023/04/26 01:55:08;;;;;;;8.30;1.40;;;;;;;4.66;85.37;100868.09;5074973;28;20506;-67
2023/04/26 01:57:36;;;;;;;10.50;1.10;;;;;;;4.65;86.13;100874.53;5074628;28;20468;-67
2023/04/26 02:00:03;;;;;;;7.90;1.03;;;;;;;4.69;86.20;100874.81;5074881;28;20516;-67
2023/04/26 02:02:30;;;;;;;5.70;1.10;;;;;;;4.63;85.94;100863.25;5074516;28;20502;-66
2023/04/26 02:04:56;;;;;;;5.53;1.10;;;;;;;4.61;86.45;100872.63;5074223;28;20980;-67
2023/04/26 02:07:23;;;;;;;6.20;1.30;;;;;;;4.60;87.29;100874.47;5074821;28;20473;-67
2023/04/26 02:09:50;;;;;;;8.27;1.20;;;;;;;4.52;87.74;100870.41;5074489;28;20524;-67
2023/04/26 02:12:17;;;;;;;7.43;1.17;;;;;;;4.59;87.56;100878.22;5074453;28;20948;-67
2023/04/26 02:14:45;;;;;;;5.00;1.00;;;;;;;4.61;86.64;100878.78;5074223;28;20513;-67
2023/04/26 02:17:11;;;;;;;4.90;1.07;;;;;;;4.52;87.48;100874.97;5074596;28;20441;-66
2023/04/26 02:19:38;;;;;;;6.33;1.17;;;;;;;4.51;88.03;100867.94;5074812;28;20546;-68
2023/04/26 02:22:06;;;;;;;5.40;0.90;;;;;;;4.51;87.35;100874.13;5074110;28;20452;-66
2023/04/26 02:24:33;;;;;;;8.57;1.30;;;;;;;4.48;87.40;100880.00;5074444;28;20453;-67
2023/04/26 02:27:02;;;;;;;15.33;1.30;;;;;;;4.48;87.53;100877.31;5073898;28;20948;-67
2023/04/26 02:29:29;;;;;;;5.47;0.97;;;;;;;4.46;88.30;100866.03;5074112;28;20919;-67
2023/04/26 02:31:57;;;;;;;5.50;1.30;;;;;;;4.46;87.92;100879.44;5074228;28;20469;-67
2023/04/26 02:34:24;;;;;;;7.80;0.83;;;;;;;4.44;88.11;100873.53;5073873;28;20489;-66
2023/04/26 02:36:50;;;;;;;5.67;1.10;;;;;;;4.41;88.45;100867.84;5074210;28;20480;-67
2023/04/26 02:39:18;;;;;;;4.53;0.73;;;;;;;4.35;88.98;100868.88;5074196;28;20447;-67
2023/04/26 02:41:44;;;;;;;21.63;1.47;;;;;;;4.37;88.80;100872.09;5074053;28;20484;-67
2023/04/26 02:44:11;;;;;;;5.17;0.80;;;;;;;4.34;89.78;100868.06;5073734;28;20489;-66
2023/04/26 02:46:38;;;;;;;4.93;1.00;;;;;;;4.38;88.82;100876.41;5074066;28;20469;-66
2023/04/26 02:49:06;;;;;;;6.20;1.40;;;;;;;4.37;89.06;100864.88;5074004;28;20485;-66
2023/04/26 02:51:32;;;;;;;6.97;0.90;;;;;;;4.35;88.52;100868.88;5073715;28;20481;-66
2023/04/26 02:53:59;;;;;;;11.70;1.37;;;;;;;4.36;88.59;100865.94;5073521;28;21044;-66
2023/04/26 02:56:26;;;;;;;6.23;1.50;;;;;;;4.28;88.90;100869.06;5073853;28;20448;-66
2023/04/26 02:58:52;;;;;;;5.33;1.27;;;;;;;4.23;89.76;100861.78;5074100;28;20506;-67
2023/04/26 03:01:19;;;;;;;5.53;1.43;;;;;;;4.29;89.23;100871.50;5073648;28;20488;-67
2023/04/26 03:03:46;;;;;;;15.93;2.30;;;;;;;4.29;89.06;100866.16;5073798;28;20465;-67
2023/04/26 03:06:14;;;;;;;6.63;1.03;;;;;;;4.22;89.49;100862.84;5073750;28;20465;-67
2023/04/26 03:08:40;;;;;;;6.50;1.17;;;;;;;4.21;89.82;100869.28;5073590;28;20538;-66
2023/04/26 03:11:07;;;;;;;5.10;1.20;;;;;;;4.21;90.55;100871.94;5073774;28;20448;-67
2023/04/26 03:13:34;;;;;;;5.30;1.50;;;;;;;4.22;90.60;100870.06;5073358;28;20516;-67
2023/04/26 03:16:00;;;;;;;5.70;1.10;;;;;;;4.20;90.10;100866.81;5073489;28;20449;-66
2023/04/26 03:18:27;;;;;;;6.60;1.27;;;;;;;4.15;90.95;100869.44;5073502;28;20437;-65
2023/04/26 03:20:54;;;;;;;4.70;0.97;;;;;;;4.25;90.09;100870.41;5073492;28;20473;-66
2023/04/26 03:23:24;;;;;;;5.43;1.10;;;;;;;4.21;90.13;100873.81;5073368;28;20442;-66
2023/04/26 03:25:50;;;;;;;8.40;2.00;;;;;;;4.16;90.99;100876.44;5073049;28;20445;-66
2023/04/26 03:28:17;;;;;;;7.13;1.20;;;;;;;4.14;91.00;100876.69;5073298;28;20448;-66
2023/04/26 03:30:44;;;;;;;6.40;1.20;;;;;;;4.12;91.10;100877.97;5073317;28;20441;-66
2023/04/26 03:33:12;;;;;;;6.17;1.60;;;;;;;4.07;90.85;100881.41;5073226;28;20489;-66
2023/04/26 03:35:38;;;;;;;5.80;1.10;;;;;;;4.13;91.67;100883.13;5073002;28;20473;-66
2023/04/26 03:40:42;;;;;;;6.80;1.40;;;;;;;4.17;90.89;100884.25;5140585;22;20574;-76
2023/04/26 03:43:08;;;;;;;5.50;1.70;;;;;;;4.19;90.76;100892.81;5134606;27;20459;-76
2023/04/26 03:45:35;;;;;;;6.20;1.50;;;;;;;4.20;90.55;100894.44;5134533;27;20533;-77
2023/04/26 03:48:02;;;;;;;5.80;0.90;;;;;;;4.16;91.38;100879.94;5127784;22;20488;-77
2023/04/26 03:50:29;;;;;;;4.50;0.93;;;;;;;4.12;90.86;100894.06;5073433;28;20426;-76
2023/04/26 03:52:56;;;;;;;6.47;1.30;;;;;;;4.12;91.14;100892.22;5073300;28;20445;-76
2023/04/26 03:55:22;;;;;;;5.07;1.17;;;;;;;4.04;91.29;100889.97;5073279;28;20442;-76
2023/04/26 03:57:52;;;;;;;20.23;2.00;;;;;;;4.07;91.03;100892.13;5073334;28;20555;-76
2023/04/26 04:00:19;;;;;;;4.40;0.70;;;;;;;4.11;91.17;100895.13;5073556;28;20505;-75
2023/04/26 04:02:46;;;;;;;7.60;1.67;;;;;;;4.07;90.85;100892.13;5073244;28;20488;-76
2023/04/26 04:05:12;;;;;;;5.03;1.10;;;;;;;4.10;91.54;100898.88;5072974;28;20477;-76
2023/04/26 04:07:39;;;;;;;5.93;1.50;;;;;;;4.17;90.95;100894.16;5073127;28;20445;-76
2023/04/26 04:10:08;;;;;;;7.53;1.60;;;;;;;4.16;90.61;100898.72;5072973;28;20449;-76
2023/04/26 04:12:35;;;;;;;4.40;0.87;;;;;;;4.11;90.66;100897.81;5073044;28;20506;-76
2023/04/26 04:15:04;;;;;;;9.67;1.70;;;;;;;4.12;91.01;100899.44;5072895;28;21014;-75
2023/04/26 04:17:30;;;;;;;8.67;1.30;;;;;;;4.12;90.80;100892.22;5073112;28;20540;-76
2023/04/26 04:19:57;;;;;;;7.70;1.47;;;;;;;4.12;91.24;100902.94;5072820;28;20481;-76
2023/04/26 04:22:24;;;;;;;11.43;1.57;;;;;;;4.18;91.06;100909.16;5073194;28;20814;-76
2023/04/26 04:24:50;;;;;;;7.07;1.43;;;;;;;4.18;91.36;100907.28;5073116;28;20871;-76
2023/04/26 04:27:17;;;;;;;9.10;1.70;;;;;;;4.17;90.50;100911.03;5072795;28;20445;-76
2023/04/26 04:29:45;;;;;;;9.00;1.40;;;;;;;4.15;90.75;100902.44;5073335;28;20453;-76
2023/04/26 04:32:14;;;;;;;6.57;1.40;;;;;;;4.18;90.43;100912.66;5073221;28;20453;-76
2023/04/26 04:34:41;;;;;;;11.83;2.00;;;;;;;4.17;90.95;100912.91;5072633;28;20924;-76
2023/04/26 04:37:07;;;;;;;7.93;1.77;;;;;;;4.17;91.42;100915.59;5072724;28;20441;-75
2023/04/26 04:39:34;;;;;;;7.03;1.60;;;;;;;4.23;90.40;100919.94;5072946;28;20476;-76
2023/04/26 04:42:01;;;;;;;6.60;1.60;;;;;;;4.23;90.71;100920.75;5072607;28;20535;-76
2023/04/26 04:44:27;;;;;;;10.50;1.80;;;;;;;4.27;90.19;100918.38;5072641;28;20536;-76
2023/04/26 04:46:55;;;;;;;7.57;1.80;;;;;;;4.30;89.76;100924.06;5073005;28;20524;-76
2023/04/26 04:49:23;;;;;;;9.73;1.90;;;;;;;4.30;90.19;100921.38;5073685;28;20984;-76
2023/04/26 04:51:50;;;;;;;5.40;1.63;;;;;;;4.31;90.57;100927.56;5076777;28;20537;-75
2023/04/26 04:54:18;;;;;;;20.90;1.60;;;;;;;4.43;89.66;100930.13;5076915;28;20516;-75
2023/04/26 04:56:45;;;;;;;5.30;1.33;;;;;;;4.48;89.24;100927.47;5076584;28;20441;-75
2023/04/26 04:59:12;;;;;;;7.73;1.70;;;;;;;4.49;89.30;100939.81;5076431;28;20492;-75
2023/04/26 05:01:38;;;;;;;5.83;1.80;;;;;;;4.51;89.30;100926.97;5076139;28;20429;-75
2023/04/26 05:04:06;;;;;;;21.93;2.60;;;;;;;4.55;89.08;100939.59;5076645;28;20524;-75
2023/04/26 05:06:34;;;;;;;8.13;1.67;;;;;;;4.57;89.08;100934.00;5076315;28;20453;-75
2023/04/26 05:09:03;;;;;;;5.40;1.50;;;;;;;4.61;88.37;100932.44;5076109;28;20457;-76
2023/04/26 05:11:30;;;;;;;6.80;1.77;;;;;;;4.61;88.94;100932.44;5076194;28;20433;-76
2023/04/26 05:13:56;;;;;;;6.60;1.80;;;;;;;4.65;89.02;100933.56;5076150;28;20581;-75
2023/04/26 05:16:23;;;;;;;9.83;1.43;;;;;;;4.74;88.05;100942.78;5075815;28;20818;-76
2023/04/26 05:18:49;;;;;;;11.67;1.60;;;;;;;4.77;88.38;100952.19;5075941;28;20461;-75
2023/04/26 05:21:16;;;;;;;7.53;1.20;;;;;;;4.77;88.51;100941.44;5075636;28;20441;-75
2023/04/26 05:23:44;;;;;;;16.37;1.70;;;;;;;4.72;88.78;100961.00;5075830;28;21025;-76
2023/04/26 05:26:14;;;;;;;7.27;1.87;;;;;;;4.90;87.38;100961.69;5075759;28;20529;-76
2023/04/26 05:28:41;;;;;;;7.20;1.37;;;;;;;4.89;87.81;100960.91;5075447;28;20468;-76
2023/04/26 05:31:08;;;;;;;10.27;1.90;;;;;;;4.85;88.19;100959.78;5075909;28;20449;-76
2023/04/26 05:33:41;;;;;;;5.80;1.57;;;;;;;4.86;88.91;100958.72;5075446;28;20948;-75
2023/04/26 05:36:09;;;;;;;6.70;1.87;;;;;;;4.94;89.34;100963.63;5075582;28;20527;-76
2023/04/26 05:38:36;;;;;;;6.50;1.10;;;;;;;5.02;88.63;100970.41;5075360;28;21022;-77
2023/04/26 05:41:05;;;;;;;7.67;1.67;;;;;;;5.19;86.68;100970.31;5076403;28;20449;-75
2023/04/26 05:43:31;;;;;;;5.50;1.60;;;;;;;5.24;86.67;100965.78;5075724;28;20450;-75
2023/04/26 05:45:59;;;;;;;5.47;1.50;;;;;;;5.25;87.17;100964.72;5075355;28;20460;-75
2023/04/26 05:48:26;;;;;;;11.03;1.93;;;;;;;5.37;86.61;100971.78;5075474;28;20531;-76
2023/04/26 05:50:53;;;;;;;14.73;2.30;;;;;;;5.46;85.91;100975.63;5075219;28;20938;-76
2023/04/26 05:53:20;;;;;;;10.53;1.43;;;;;;;5.50;85.31;100972.16;5075322;28;20499;-76
2023/04/26 05:55:47;;;;;;;10.63;1.27;;;;;;;5.65;85.05;100978.72;5075038;28;20995;-76
2023/04/26 05:58:15;;;;;;;9.00;1.20;;;;;;;5.68;85.01;100976.31;5075311;28;20453;-76
2023/04/26 06:00:42;;;;;;;7.07;1.53;;;;;;;5.69;85.04;100983.31;5074363;28;20520;-76
2023/04/26 06:03:08;;;;;;;8.57;1.83;;;;;;;5.78;85.29;100983.63;5075162;28;20488;-76
2023/04/26 06:05:37;;;;;;;11.70;2.13;;;;;;;5.72;85.06;100990.06;5075329;28;20512;-76
2023/04/26 06:08:04;;;;;;;9.40;2.57;;;;;;;5.86;84.01;100982.34;5075316;28;20465;-77
2023/04/26 06:10:31;;;;;;;8.20;1.30;;;;;;;5.95;83.41;100994.25;5075123;28;20461;-76
2023/04/26 06:12:57;;;;;;;6.67;1.43;;;;;;;5.95;83.58;100980.81;5074930;28;20452;-76
2023/04/26 06:15:26;;;;;;;5.80;1.50;;;;;;;5.97;82.82;100986.72;5074913;28;20516;-76
2023/04/26 06:17:53;;;;;;;6.97;1.50;;;;;;;6.01;82.43;100988.63;5074555;28;21091;-76
2023/04/26 06:20:20;;;;;;;9.70;1.40;;;;;;;6.02;81.80;100984.06;5075186;28;20879;-76
2023/04/26 06:22:46;;;;;;;10.00;1.30;;;;;;;6.01;82.84;100987.84;5074807;28;20545;-77
2023/04/26 06:25:13;;;;;;;6.43;1.80;;;;;;;6.13;82.47;100985.75;5074537;28;20952;-76
2023/04/26 06:27:40;;;;;;;5.23;0.90;;;;;;;6.09;82.43;100986.53;5074761;28;20449;-74
2023/04/26 06:30:08;;;;;;;6.00;1.60;;;;;;;6.18;82.70;100988.47;5074824;28;20444;-75
2023/04/26 06:32:38;;;;;;;8.70;2.07;;;;;;;6.33;81.22;100990.44;5074320;28;20892;-75
2023/04/26 06:35:05;;;;;;;6.73;1.00;;;;;;;6.32;81.23;100988.78;5074994;28;20568;-75
2023/04/26 06:37:32;;;;;;;5.13;1.37;;;;;;;6.40;80.85;100995.56;5074149;28;20533;-75
2023/04/26 06:39:58;;;;;;;6.43;1.80;;;;;;;6.41;80.97;100997.16;5074654;28;20456;-75
2023/04/26 06:42:25;;;;;;;4.67;0.83;;;;;;;6.55;79.92;100993.75;5074583;28;20532;-76
2023/04/26 06:44:52;;;;;;;8.20;1.70;;;;;;;6.52;80.67;100993.47;5074189;28;20986;-76
2023/04/26 06:47:19;;;;;;;9.63;1.20;;;;;;;6.65;80.28;100992.97;5074389;28;20946;-76
2023/04/26 06:49:47;;;;;;;7.27;1.50;;;;;;;6.75;79.01;100987.59;5073875;28;20473;-76
2023/04/26 06:52:13;;;;;;;8.33;2.17;;;;;;;6.82;78.84;100982.78;5074237;28;20536;-75
2023/04/26 06:54:40;;;;;;;4.83;1.20;;;;;;;6.93;78.72;100993.56;5073766;28;20987;-76
2023/04/26 06:57:07;;;;;;;6.63;1.07;;;;;;;7.00;77.13;100994.13;5073869;28;20449;-75
2023/04/26 06:59:34;;;;;;;4.60;1.07;;;;;;;6.99;77.75;100995.19;5074217;28;20523;-76
2023/04/26 07:02:01;;;;;;;5.73;1.50;;;;;;;7.00;77.35;100996.81;5073804;28;20536;-76
2023/04/26 07:04:28;;;;;;;7.10;0.97;;;;;;;7.00;77.45;101005.72;5074237;28;20827;-77
2023/04/26 07:06:56;;;;;;;10.03;1.40;;;;;;;7.11;76.27;100995.75;5073828;28;20488;-76
2023/04/26 07:09:23;;;;;;;5.70;1.37;;;;;;;7.18;75.89;100999.00;5074214;28;20465;-76
2023/04/26 07:11:50;;;;;;;7.80;1.47;;;;;;;7.26;76.70;101003.88;5073783;28;20528;-77
2023/04/26 07:14:16;;;;;;;5.10;0.93;;;;;;;7.37;74.85;100999.28;5073321;28;20524;-77
2023/04/26 07:16:43;;;;;;;9.70;1.67;;;;;;;7.46;75.42;101002.25;5073908;28;20944;-77
2023/04/26 07:19:10;;;;;;;5.90;1.37;;;;;;;7.48;75.17;101010.84;5073673;28;21065;-77
2023/04/26 07:21:37;;;;;;;7.30;1.40;;;;;;;7.56;73.48;101007.63;5073907;28;20488;-77
2023/04/26 07:24:07;;;;;;;7.73;1.67;;;;;;;7.54;73.79;101005.22;5074051;28;20537;-76
2023/04/26 07:26:35;;;;;;;6.47;1.40;;;;;;;7.65;73.20;101006.00;5073750;28;20488;-76
2023/04/26 07:29:02;;;;;;;8.37;1.23;;;;;;;7.69;73.07;101006.28;5073402;28;20457;-77
2023/04/26 07:31:30;;;;;;;8.53;1.10;;;;;;;7.76;73.35;101006.81;5073662;28;20445;-77
2023/04/26 07:33:57;;;;;;;4.70;1.00;;;;;;;7.89;71.66;101008.16;5073552;28;20950;-77
2023/04/26 07:36:24;;;;;;;5.80;1.77;;;;;;;7.79;71.79;100999.00;5073561;28;20521;-76
2023/04/26 07:38:51;;;;;;;23.90;1.67;;;;;;;8.00;70.38;101009.72;5073682;28;20460;-77
2023/04/26 07:41:19;;;;;;;6.50;1.20;;;;;;;8.18;70.75;101017.22;5073894;28;20495;-76
2023/04/26 07:43:45;;;;;;;10.00;1.90;;;;;;;8.39;70.42;101017.22;5073573;28;20533;-76
2023/04/26 07:46:12;;;;;;;6.37;1.27;;;;;;;8.25;70.55;101022.34;5073543;28;20524;-76
2023/04/26 07:48:38;;;;;;;7.03;1.17;;;;;;;8.33;69.36;101019.91;5073319;28;20558;-76
2023/04/26 07:51:08;;;;;;;14.20;1.40;;;;;;;8.47;69.44;101027.44;5073688;28;20528;-76
2023/04/26 07:53:35;;;;;;;7.80;1.40;;;;;;;8.54;67.98;101036.03;5073424;28;20441;-76
2023/04/26 07:56:05;;;;;;;6.67;1.30;;;;;;;8.57;67.33;101033.59;5073540;28;20560;-77
2023/04/26 07:58:33;;;;;;;5.27;1.40;;;;;;;8.75;65.80;101034.88;5073366;28;20454;-77
2023/04/26 08:01:00;;;;;;;4.73;1.00;;;;;;;8.75;65.28;101024.06;5073209;28;20820;-77
2023/04/26 08:03:27;;;;;;;13.13;1.60;;;;;;;8.84;64.89;101027.81;5073596;28;20443;-77
2023/04/26 08:05:54;;;;;;;4.60;0.90;;;;;;;8.97;63.94;101031.78;5073586;28;20433;-77
2023/04/26 08:08:21;;;;;;;5.27;1.27;;;;;;;8.87;62.40;101031.84;5073475;28;20483;-77
2023/04/26 08:10:48;;;;;;;5.13;1.10;;;;;;;8.84;63.54;101044.00;5073403;28;20815;-77
2023/04/26 08:13:15;;;;;;;5.10;1.50;;;;;;;8.72;66.12;101040.00;5073364;28;20536;-76
2023/04/26 08:15:43;;;;;;;6.00;1.27;;;;;;;8.55;68.07;101043.06;5073728;28;20516;-76
2023/04/26 08:18:10;;;;;;;6.23;1.60;;;;;;;8.29;69.39;101048.53;5073189;28;20457;-76
2023/04/26 08:20:36;;;;;;;7.13;1.77;;;;;;;8.07;70.66;101045.34;5074499;28;20528;-77
2023/04/26 08:23:04;;;;;;;5.33;1.00;;;;;;;8.00;71.69;101045.59;5073939;28;20433;-80
2023/04/26 08:25:33;;;;;;;7.50;1.00;;;;;;;8.11;71.59;101038.31;5078113;28;20540;-79
2023/04/26 08:28:00;;;;;;;6.77;1.53;;;;;;;8.28;69.04;101046.09;5078979;28;20460;-79
2023/04/26 08:30:28;;;;;;;10.10;1.60;;;;;;;8.35;70.07;101035.81;5078389;28;20437;-78
2023/04/26 08:32:56;;;;;;;6.97;1.30;;;;;;;8.49;65.47;101044.16;5077034;28;20808;-76
2023/04/26 08:35:23;;;;;;;5.00;1.20;;;;;;;8.53;65.28;101054.13;5076924;28;20484;-76
2023/04/26 08:37:49;;;;;;;4.83;1.03;;;;;;;8.56;62.07;101050.88;5076713;28;20551;-76
2023/04/26 08:40:22;;;;;;;6.43;1.40;;;;;;;8.69;61.17;101049.50;5076979;28;20456;-76
2023/04/26 08:42:51;;;;;;;6.37;1.07;;;;;;;8.81;61.91;101058.09;5076600;28;20820;-78
2023/04/26 08:45:18;;;;;;;5.40;1.10;;;;;;;8.88;60.59;101065.06;5076477;28;20948;-77
2023/04/26 08:47:48;;;;;;;7.43;1.10;;;;;;;8.89;59.53;101053.97;5075999;28;20444;-77
2023/04/26 08:50:19;;;;;;;5.13;0.90;;;;;;;9.03;59.56;101046.91;5075737;28;20520;-77
2023/04/26 08:52:50;;;;;;;7.43;1.33;;;;;;;9.12;59.47;101057.94;5075815;28;20435;-77
2023/04/26 08:55:18;;;;;;;5.27;1.10;;;;;;;9.28;59.71;101054.03;5075393;28;20468;-77
2023/04/26 08:57:47;;;;;;;4.67;1.00;;;;;;;9.33;58.54;101051.28;5075895;28;20476;-77
2023/04/26 09:00:15;;;;;;;12.17;1.97;;;;;;;9.35;57.63;101059.94;5075883;28;20964;-77
2023/04/26 09:02:47;;;;;;;4.73;0.90;;;;;;;9.27;58.72;101051.59;5075783;28;20452;-77
2023/04/26 09:05:13;;;;;;;5.27;1.07;;;;;;;9.41;57.40;101049.06;5076377;28;20442;-77
2023/04/26 09:07:44;;;;;;;4.60;0.90;;;;;;;9.22;57.34;101057.84;5076320;28;20987;-77
2023/04/26 09:10:12;;;;;;;7.03;1.07;;;;;;;9.22;56.55;101055.16;5076061;28;20425;-77
2023/04/26 09:12:40;;;;;;;5.20;0.83;;;;;;;9.31;56.75;101058.88;5075703;28;20437;-77
2023/04/26 09:15:07;;;;;;;8.30;0.80;;;;;;;9.29;58.56;101047.53;5076093;28;20524;-78
2023/04/26 09:17:36;;;;;;;4.73;0.83;;;;;;;9.45;59.85;101052.84;5075949;28;20463;-78
2023/04/26 09:20:19;;;;;;;4.47;0.80;;;;;;;9.63;59.77;101041.31;5076128;28;20465;-79
2023/04/26 09:22:49;;;;;;;5.03;0.90;;;;;;;9.76;58.88;101050.69;5076376;28;20430;-78
2023/04/26 09:25:17;;;;;;;5.90;1.10;;;;;;;9.67;57.85;101047.78;5075688;28;20821;-77
2023/04/26 09:27:44;;;;;;;9.20;0.87;;;;;;;9.72;57.98;101047.75;5075491;28;20948;-78
2023/04/26 09:30:14;;;;;;;9.40;1.30;;;;;;;9.79;55.82;101050.13;5075843;28;20960;-79
2023/04/26 09:32:50;;;;;;;4.83;1.03;;;;;;;9.80;54.86;101049.03;5075977;28;20533;-78
2023/04/26 09:35:26;;;;;;;10.73;1.30;;;;;;;9.77;55.23;101039.56;5075128;28;20465;-78
2023/04/26 09:37:57;;;;;;;4.90;1.20;;;;;;;9.96;55.29;101049.69;5075694;28;20450;-78
2023/04/26 09:40:26;;;;;;;8.90;1.00;;;;;;;10.08;53.33;101050.91;5075703;28;20448;-78
2023/04/26 09:43:00;;;;;;;5.00;1.00;;;;;;;10.07;53.95;101053.91;5075283;28;20555;-78
2023/04/26 09:45:28;;;;;;;6.73;0.97;;;;;;;10.03;54.09;101052.88;5075169;28;20532;-78
2023/04/26 09:47:55;;;;;;;5.90;1.13;;;;;;;9.92;52.04;101051.38;5075552;28;20487;-78
2023/04/26 09:50:33;;;;;;;6.70;1.50;;;;;;;9.75;52.74;101038.25;5076677;28;20457;-78
2023/04/26 09:53:40;;;;;;;5.33;1.03;;;;;;;9.85;53.33;101043.56;5075043;28;20449;-78
2023/04/26 10:59:25;;;;;;;5.07;1.10;;;;;;;10.21;53.53;101062.97;4733682;29;20519;-78
2023/04/26 11:01:53;;;;;;;5.93;1.60;;;;;;;10.39;54.28;101068.78;4823435;29;20442;-77
2023/04/26 11:04:20;;;;;;;5.60;1.77;;;;;;;10.58;52.49;101058.81;4823397;29;20460;-78
2023/04/26 11:06:51;;;;;;;7.63;1.23;;;;;;;10.73;50.95;101068.66;4823177;29;20449;-77
2023/04/26 11:12:15;;;;;;;5.13;1.20;;;;;;;11.11;49.68;101069.50;4859095;29;20557;-77
2023/04/26 11:14:44;;;;;;;7.80;1.60;;;;;;;11.05;49.84;101066.06;4896780;29;20444;-77
2023/04/26 11:17:11;;;;;;;6.33;1.53;;;;;;;11.01;49.70;101064.22;4897237;29;20992;-79
2023/04/26 11:19:40;;;;;;;10.03;2.23;;;;;;;10.99;49.95;101063.72;4922744;29;21000;-78
2023/04/26 11:22:08;;;;;;;5.70;2.00;;;;;;;10.98;50.87;101053.97;4953749;29;20545;-78
2023/04/26 11:24:35;;;;;;;5.20;1.27;;;;;;;11.08;49.81;101056.56;4954818;28;20453;-78
2023/04/26 11:27:09;;;;;;;7.47;1.90;;;;;;;11.08;48.42;101073.63;4959596;28;20536;-78
2023/04/26 11:29:36;;;;;;;9.27;1.70;;;;;;;11.05;48.27;101070.69;5050294;28;20461;-77
2023/04/26 11:32:05;;;;;;;7.17;1.57;;;;;;;10.89;48.85;101066.56;5073824;28;20520;-78
2023/04/26 11:34:33;;;;;;;8.53;1.60;;;;;;;10.76;50.74;101066.19;5073652;28;20500;-77
2023/04/26 11:37:01;;;;;;;5.40;1.67;;;;;;;10.74;49.18;101072.97;5073646;28;20539;-77
2023/04/26 11:39:28;;;;;;;5.30;1.30;;;;;;;10.76;49.49;101063.47;5073511;28;20545;-78
2023/04/26 11:42:05;;;;;;;5.67;1.60;;;;;;;11.02;50.08;101073.97;5073286;28;20477;-78
2023/04/26 11:44:31;;;;;;;10.20;1.87;;;;;;;11.26;47.83;101074.72;5073696;28;20437;-77
2023/04/26 11:46:58;;;;;;;7.00;1.97;;;;;;;11.44;46.47;101066.88;5073296;28;20447;-77
2023/04/26 11:49:27;;;;;;;7.03;1.47;;;;;;;12.01;46.15;101073.03;5073131;28;20533;-77
2023/04/26 11:51:54;;;;;;;8.67;1.40;;;;;;;12.84;46.36;101069.25;5072660;28;20451;-77
2023/04/26 11:54:32;;;;;;;9.27;2.00;;;;;;;13.27;43.72;101076.22;5073013;28;20911;-78
2023/04/26 11:57:00;;;;;;;19.47;1.90;;;;;;;12.52;44.92;101075.59;5073711;28;20472;-78
2023/04/26 11:59:28;;;;;;;6.17;2.07;;;;;;;12.13;46.29;101078.78;5072417;28;20547;-78
2023/04/26 12:01:55;;;;;;;9.43;1.30;;;;;;;11.70;47.48;101076.22;5073355;28;20441;-78
2023/04/26 12:04:29;;;;;;;8.70;1.77;;;;;;;11.48;47.68;101078.75;5072871;28;20878;-77
2023/04/26 12:06:56;;;;;;;6.00;2.03;;;;;;;11.28;48.49;101072.50;5073365;28;20509;-78
2023/04/26 12:09:24;;;;;;;6.40;1.73;;;;;;;11.09;49.64;101074.41;5072741;28;20532;-77
2023/04/26 12:11:56;;;;;;;8.33;2.30;;;;;;;10.84;50.11;101075.56;5072719;28;21013;-77
2023/04/26 12:14:23;;;;;;;5.63;1.77;;;;;;;10.53;51.35;101083.25;5073734;28;20504;-77
2023/04/26 12:16:50;;;;;;;7.23;2.13;;;;;;;10.42;52.32;101082.56;5072924;28;20484;-77
2023/04/26 12:19:17;;;;;;;8.20;1.57;;;;;;;10.44;52.21;101084.97;5073451;28;20469;-78
2023/04/26 12:21:49;;;;;;;8.43;1.50;;;;;;;10.53;52.44;101083.25;5072923;28;20449;-77
2023/04/26 12:24:24;;;;;;;8.20;1.53;;;;;;;10.66;53.05;101077.13;5072556;28;20434;-77
2023/04/26 12:26:50;;;;;;;5.73;1.30;;;;;;;10.96;50.73;101083.28;5072746;28;20437;-77
2023/04/26 12:29:17;;;;;;;9.40;1.60;;;;;;;11.09;51.13;101077.13;5072377;28;20992;-77
2023/04/26 12:31:44;;;;;;;6.80;1.80;;;;;;;11.94;48.76;101084.25;5073919;28;20507;-77
2023/04/26 12:34:11;;;;;;;7.93;1.20;;;;;;;12.56;46.68;101090.19;5073479;28;20475;-76
2023/04/26 12:36:40;;;;;;;6.67;1.60;;;;;;;13.45;44.40;101088.06;5073602;28;20576;-78
2023/04/26 12:39:13;;;;;;;4.73;1.10;;;;;;;14.41;42.63;101093.00;5073340;28;20527;-78
2023/04/26 13:25:02;;;;;;;4.90;1.30;;;;;;;11.27;44.15;101065.47;4771079;29;20761;-79
2023/04/26 13:30:48;;;;;;;5.47;1.30;;;;;;;11.20;45.71;101077.78;4823287;29;20981;-79